RKE weather

Copenhagen Roskilde Airport
Copenhagen, Zealand, Denmark

Public forecast

Using degrees Celsius for public forecast. Weather courtesy of forecast.io.

Current aviation weather report (METAR) for Copenhagen Roskilde Airport

Retrieved 2019/10/15 10:20 UTC (14 minutes ago):

EKRK 151020Z AUTO 13015KT 9999 OVC008/// 13/12 Q1008

Closest aviation forecast (TAF) to Copenhagen Roskilde Airport

Closest forecast is Copenhagen Kastrup Airport, 17.9 nm (33.1 km) E. Retrieved 2019/10/15 06:30 UTC (4 hours ago):

TAF EKCH 150456Z 1506/1606 10015KT 9999 FEW030 TEMPO 1506/1509 12018G28KT BECMG 1515/1517 12005KT TEMPO 1517/1521 3000 BR BECMG 1521/1523 0500 FG BKN002 TEMPO 1523/1602 3000 BCFG BR SCT002 BKN005